Time;durP1;ratioP1;P1;durP2;ratioP2;P2;SDS_P1;SDS_P2;PMS_P1;PMS_P2;Temp;Humidity;BMP_temperature;BMP_pressure;BME280_temperature;BME280_humidity;BME280_pressure;Samples;Min_cycle;Max_cycle;Signal;HPM_P1;HPM_P2
2023/06/17 00:00:14;;;;;;;1.83;1.55;;;26.90;32.80;;;;;;5045087;28;20093;-61
2023/06/17 00:02:40;;;;;;;2.13;1.50;;;26.90;32.90;;;;;;5039768;28;20032;-62
2023/06/17 00:05:06;;;;;;;1.83;1.58;;;26.80;32.80;;;;;;5041100;28;20123;-60
2023/06/17 00:07:32;;;;;;;2.08;1.42;;;26.80;32.90;;;;;;5041392;28;20117;-59
2023/06/17 00:09:58;;;;;;;3.65;1.75;;;26.80;32.90;;;;;;5043794;28;20044;-60
2023/06/17 00:12:31;;;;;;;2.47;1.40;;;26.80;33.00;;;;;;5026908;28;20382;-59
2023/06/17 00:15:01;;;;;;;3.47;1.88;;;26.80;33.10;;;;;;5043148;28;20155;-62
2023/06/17 00:17:30;;;;;;;1.85;1.55;;;26.80;33.10;;;;;;5039928;28;20033;-61
2023/06/17 00:20:10;;;;;;;2.40;1.58;;;26.80;33.10;;;;;;5044783;28;20068;-60
2023/06/17 00:22:36;;;;;;;2.30;1.70;;;26.70;33.10;;;;;;5039669;28;20500;-62
2023/06/17 00:25:02;;;;;;;1.67;1.48;;;26.80;33.20;;;;;;5044743;28;20033;-61
2023/06/17 00:27:28;;;;;;;2.00;1.60;;;26.70;33.20;;;;;;5045706;28;20424;-60
2023/06/17 00:29:59;;;;;;;2.65;1.90;;;26.70;33.30;;;;;;5039644;28;20036;-62
2023/06/17 00:32:30;;;;;;;1.77;1.55;;;26.70;33.40;;;;;;5022062;28;20048;-60
2023/06/17 00:34:56;;;;;;;2.22;1.52;;;26.70;33.40;;;;;;5024682;28;20384;-61
2023/06/17 00:37:22;;;;;;;2.70;1.80;;;26.70;33.40;;;;;;5041821;28;20108;-61
2023/06/17 00:39:48;;;;;;;3.78;1.70;;;26.70;33.50;;;;;;5016582;28;20113;-60
2023/06/17 00:42:14;;;;;;;2.10;1.58;;;26.70;33.60;;;;;;5046023;28;20136;-62
2023/06/17 00:44:40;;;;;;;4.20;1.73;;;26.60;33.50;;;;;;5042264;28;20024;-60
2023/06/17 00:47:09;;;;;;;1.83;1.70;;;26.60;33.60;;;;;;5022584;28;20345;-61
2023/06/17 00:49:41;;;;;;;2.55;1.90;;;26.60;33.70;;;;;;5021470;28;20104;-61
2023/06/17 00:52:08;;;;;;;2.13;1.70;;;26.60;33.80;;;;;;5042436;28;20056;-61
2023/06/17 00:54:38;;;;;;;1.98;1.70;;;26.60;33.80;;;;;;5016130;28;20045;-61
2023/06/17 00:57:14;;;;;;;1.92;1.70;;;26.60;33.90;;;;;;5019227;28;20318;-62
2023/06/17 00:59:43;;;;;;;2.85;1.65;;;26.60;33.90;;;;;;5039416;28;20449;-61
2023/06/17 01:02:10;;;;;;;2.25;1.90;;;26.60;34.00;;;;;;5022062;28;20113;-61
2023/06/17 01:04:43;;;;;;;3.15;1.75;;;26.60;34.00;;;;;;5025002;28;20336;-60
2023/06/17 01:07:16;;;;;;;2.97;1.80;;;26.60;34.10;;;;;;5022690;28;20051;-61
2023/06/17 01:09:48;;;;;;;1.63;1.50;;;26.50;34.10;;;;;;5039541;28;20033;-59
2023/06/17 01:12:15;;;;;;;2.97;1.83;;;26.50;34.10;;;;;;5044610;28;20409;-60
2023/06/17 01:14:42;;;;;;;2.85;1.90;;;26.50;34.20;;;;;;5025606;28;20037;-60
2023/06/17 01:17:12;;;;;;;2.40;2.10;;;26.50;34.30;;;;;;5024177;28;20382;-61
2023/06/17 01:19:40;;;;;;;3.53;2.20;;;26.50;34.30;;;;;;5015209;28;20047;-61
2023/06/17 01:22:10;;;;;;;2.97;2.13;;;26.50;34.30;;;;;;5021311;28;20286;-60
2023/06/17 01:24:37;;;;;;;2.83;1.90;;;26.40;34.30;;;;;;5039872;28;20033;-61
2023/06/17 01:27:03;;;;;;;2.72;1.80;;;26.40;34.30;;;;;;5043189;28;20369;-61
2023/06/17 01:29:30;;;;;;;2.15;1.70;;;26.40;34.30;;;;;;5040004;28;20050;-62
2023/06/17 01:31:57;;;;;;;2.72;2.00;;;26.40;34.40;;;;;;5009098;28;20136;-61
2023/06/17 01:34:56;;;;;;;2.60;2.40;;;26.40;34.50;;;;;;5021934;28;20021;-62
2023/06/17 01:37:40;;;;;;;2.13;1.92;;;26.40;34.50;;;;;;5023624;28;20487;-60
2023/06/17 01:40:11;;;;;;;2.80;1.75;;;26.40;34.50;;;;;;5038967;28;20033;-60
2023/06/17 01:42:44;;;;;;;2.80;1.90;;;26.40;34.60;;;;;;5015362;28;20069;-62
2023/06/17 01:45:11;;;;;;;2.47;2.10;;;26.30;34.60;;;;;;5038414;28;20351;-60
2023/06/17 01:47:37;;;;;;;2.08;1.70;;;26.30;34.70;;;;;;5037293;28;20431;-61
2023/06/17 01:50:05;;;;;;;2.33;1.95;;;26.30;34.70;;;;;;5022465;28;20024;-61
2023/06/17 01:52:31;;;;;;;2.80;1.92;;;26.30;34.80;;;;;;5017497;28;21360;-61
2023/06/17 01:54:58;;;;;;;2.60;1.80;;;26.30;34.90;;;;;;5038714;28;20033;-59
2023/06/17 01:57:25;;;;;;;2.40;2.00;;;26.30;35.00;;;;;;5003035;28;20150;-61
2023/06/17 01:59:53;;;;;;;2.53;1.85;;;26.20;35.00;;;;;;5023270;28;20055;-59
2023/06/17 02:02:19;;;;;;;2.45;2.05;;;26.20;35.00;;;;;;5020771;28;20056;-61
2023/06/17 02:04:47;;;;;;;4.38;2.10;;;26.20;35.10;;;;;;5040553;28;20067;-61
2023/06/17 02:07:16;;;;;;;2.70;2.28;;;26.20;35.10;;;;;;5017991;28;20143;-61
2023/06/17 02:09:42;;;;;;;3.33;2.40;;;26.20;35.10;;;;;;5039355;28;20064;-63
2023/06/17 02:12:08;;;;;;;2.60;2.20;;;26.20;35.20;;;;;;5025756;28;20060;-62
2023/06/17 02:14:34;;;;;;;2.40;2.05;;;26.20;35.30;;;;;;5022205;28;20367;-60
2023/06/17 02:17:00;;;;;;;3.33;2.00;;;26.20;35.40;;;;;;5018828;28;20048;-61
2023/06/17 02:19:31;;;;;;;2.25;1.98;;;26.20;35.40;;;;;;5022609;28;20037;-61
2023/06/17 02:21:58;;;;;;;4.32;2.20;;;26.20;36.20;;;;;;5022399;28;20077;-60
2023/06/17 02:24:24;;;;;;;3.85;2.35;;;26.20;35.60;;;;;;5041052;28;20044;-60
2023/06/17 02:26:50;;;;;;;2.97;2.30;;;26.10;35.60;;;;;;5037105;28;20098;-62
2023/06/17 02:29:17;;;;;;;2.92;2.63;;;26.20;35.80;;;;;;5043599;28;20166;-60
2023/06/17 02:31:42;;;;;;;2.78;2.17;;;26.10;35.90;;;;;;5021480;28;20040;-61
2023/06/17 02:34:09;;;;;;;3.03;2.13;;;26.10;35.90;;;;;;5000080;28;20070;-60
2023/06/17 02:36:38;;;;;;;3.85;2.00;;;26.10;36.00;;;;;;5020576;28;20111;-59
2023/06/17 02:39:05;;;;;;;2.97;2.47;;;26.10;36.00;;;;;;5024944;28;20069;-60
2023/06/17 02:41:31;;;;;;;3.67;2.00;;;26.10;36.10;;;;;;5025227;28;20108;-60
2023/06/17 02:43:57;;;;;;;2.42;2.05;;;26.00;36.10;;;;;;5028669;28;20068;-60
2023/06/17 02:46:24;;;;;;;2.90;1.95;;;26.00;36.10;;;;;;5044724;28;20037;-62
2023/06/17 02:48:50;;;;;;;3.15;2.40;;;26.00;36.20;;;;;;5025353;28;20043;-60
2023/06/17 02:51:17;;;;;;;2.15;1.80;;;26.00;36.20;;;;;;5024184;28;20570;-61
2023/06/17 02:53:43;;;;;;;2.30;2.10;;;26.00;36.20;;;;;;5024267;28;20045;-58
2023/06/17 02:56:11;;;;;;;3.40;2.15;;;26.00;36.30;;;;;;5025602;28;20379;-59
2023/06/17 02:58:37;;;;;;;2.83;1.90;;;26.00;36.30;;;;;;5022639;28;20021;-59
2023/06/17 03:01:05;;;;;;;2.60;2.00;;;26.00;36.40;;;;;;5043024;28;20124;-60
2023/06/17 03:03:36;;;;;;;2.15;1.92;;;26.00;36.40;;;;;;5026127;28;20388;-61
2023/06/17 03:06:05;;;;;;;2.75;2.33;;;25.90;36.40;;;;;;5025304;28;20021;-60
2023/06/17 03:08:40;;;;;;;2.53;2.05;;;25.90;36.40;;;;;;5024954;28;20147;-61
2023/06/17 03:11:06;;;;;;;2.13;1.80;;;25.90;36.50;;;;;;5040376;28;20036;-61
2023/06/17 03:13:33;;;;;;;3.65;2.40;;;25.90;36.50;;;;;;5018520;28;20123;-61
2023/06/17 03:16:01;;;;;;;2.63;2.10;;;25.90;36.50;;;;;;5024403;28;20058;-62
2023/06/17 03:18:29;;;;;;;3.42;2.38;;;25.90;36.60;;;;;;5023440;28;20041;-59
2023/06/17 03:20:55;;;;;;;3.50;2.30;;;25.80;36.60;;;;;;5024773;28;20321;-61
2023/06/17 03:23:23;;;;;;;2.50;2.30;;;25.90;36.70;;;;;;5024023;28;20053;-61
2023/06/17 03:25:51;;;;;;;3.13;2.55;;;25.80;36.60;;;;;;5026595;28;20039;-62
2023/06/17 03:28:17;;;;;;;2.42;2.22;;;25.80;36.70;;;;;;5021747;28;20095;-62
2023/06/17 03:30:44;;;;;;;2.35;2.15;;;25.80;36.70;;;;;;5026282;28;20315;-60
2023/06/17 03:33:13;;;;;;;3.83;2.33;;;25.80;36.70;;;;;;5020027;28;20022;-59
2023/06/17 03:35:39;;;;;;;2.88;2.10;;;25.80;36.80;;;;;;5018572;28;20443;-61
2023/06/17 03:38:05;;;;;;;3.03;2.38;;;25.80;36.80;;;;;;5022915;28;20082;-61
2023/06/17 03:40:31;;;;;;;2.78;2.20;;;25.80;36.80;;;;;;5021917;28;20049;-61
2023/06/17 03:42:59;;;;;;;2.72;2.38;;;25.80;36.90;;;;;;5024330;28;20053;-60
2023/06/17 03:45:25;;;;;;;3.35;2.08;;;25.80;36.90;;;;;;5022138;28;20094;-62
2023/06/17 03:47:54;;;;;;;2.90;2.60;;;25.80;37.00;;;;;;5024243;28;20052;-60
2023/06/17 03:50:20;;;;;;;2.20;2.00;;;25.80;37.00;;;;;;5025516;28;20025;-60
2023/06/17 03:52:46;;;;;;;2.58;2.20;;;25.80;37.10;;;;;;5022128;28;20331;-60
2023/06/17 03:55:13;;;;;;;3.13;2.25;;;25.80;37.10;;;;;;5023149;28;20132;-61
2023/06/17 03:57:40;;;;;;;3.17;2.10;;;25.70;37.80;;;;;;5019692;28;20109;-62
2023/06/17 04:00:06;;;;;;;3.17;2.20;;;25.70;37.20;;;;;;5019525;28;20021;-61
2023/06/17 04:02:44;;;;;;;3.00;2.00;;;25.70;37.30;;;;;;5042047;28;20131;-61
2023/06/17 04:05:13;;;;;;;2.13;1.92;;;25.80;37.40;;;;;;5022888;28;20026;-60
2023/06/17 04:07:39;;;;;;;2.38;2.10;;;25.70;37.40;;;;;;5025748;28;20119;-61
2023/06/17 04:10:08;;;;;;;2.90;1.88;;;25.80;38.10;;;;;;5020761;28;20035;-62
2023/06/17 04:12:38;;;;;;;3.45;2.30;;;25.80;37.60;;;;;;5018452;28;20040;-61
2023/06/17 04:15:08;;;;;;;4.93;2.10;;;25.70;37.50;;;;;;5039683;28;20017;-61
2023/06/17 04:17:36;;;;;;;2.75;2.30;;;25.70;37.60;;;;;;5040831;28;20496;-61
2023/06/17 04:20:10;;;;;;;3.17;2.70;;;25.70;37.60;;;;;;5027376;28;20387;-61
2023/06/17 04:22:41;;;;;;;3.78;2.42;;;25.70;37.70;;;;;;5008959;28;20116;-60
2023/06/17 04:25:15;;;;;;;3.83;2.15;;;25.70;37.70;;;;;;5022562;28;20081;-60
2023/06/17 04:27:53;;;;;;;2.20;2.00;;;25.70;37.80;;;;;;5026513;28;20108;-60
2023/06/17 04:30:20;;;;;;;;;;;25.70;37.80;;;;;;5020551;28;20124;-62
2023/06/17 04:32:47;;;;;;;4.25;2.22;;;25.70;37.80;;;;;;5043981;28;20002;-59
2023/06/17 04:35:17;;;;;;;4.28;3.08;;;25.70;37.90;;;;;;5026890;28;20025;-61
2023/06/17 04:37:53;;;;;;;3.13;2.40;;;25.60;37.90;;;;;;5022331;28;20108;-60
2023/06/17 04:40:21;;;;;;;3.80;2.35;;;25.70;37.90;;;;;;5048930;28;20025;-61
2023/06/17 04:42:49;;;;;;;2.50;2.30;;;25.60;37.90;;;;;;5017551;28;20137;-60
2023/06/17 04:45:17;;;;;;;3.25;2.47;;;25.60;38.00;;;;;;5008626;28;20176;-61
2023/06/17 04:47:45;;;;;;;3.00;2.30;;;25.60;38.00;;;;;;5006404;28;20049;-60
2023/06/17 04:50:17;;;;;;;3.17;2.35;;;25.60;38.00;;;;;;5005332;28;20144;-61
2023/06/17 04:52:50;;;;;;;3.58;2.70;;;25.60;38.10;;;;;;5005847;28;20438;-62
2023/06/17 04:55:18;;;;;;;3.65;2.58;;;25.60;38.20;;;;;;4989979;28;20025;-61
2023/06/17 04:57:45;;;;;;;4.03;2.60;;;25.60;38.20;;;;;;5006926;28;20354;-61
2023/06/17 05:00:14;;;;;;;3.20;2.45;;;25.60;38.30;;;;;;5006347;28;20310;-61
2023/06/17 05:02:42;;;;;;;3.10;2.58;;;25.60;38.30;;;;;;5007787;28;20097;-61
2023/06/17 05:05:08;;;;;;;2.45;2.22;;;25.60;38.40;;;;;;5006972;28;20088;-62
2023/06/17 05:07:35;;;;;;;3.78;2.58;;;25.60;38.50;;;;;;5004409;28;20434;-61
2023/06/17 05:10:03;;;;;;;3.13;2.35;;;25.60;38.50;;;;;;5006440;28;20077;-62
2023/06/17 05:12:31;;;;;;;3.83;2.83;;;25.60;38.60;;;;;;5006880;28;20086;-62
2023/06/17 05:14:58;;;;;;;4.70;2.67;;;25.50;38.60;;;;;;5007096;28;20045;-61
2023/06/17 05:17:24;;;;;;;3.08;2.47;;;25.60;38.80;;;;;;4990271;28;20022;-60
2023/06/17 05:19:50;;;;;;;3.95;2.78;;;25.60;38.90;;;;;;5005432;28;20125;-59
2023/06/17 05:22:17;;;;;;;3.03;2.60;;;25.60;39.00;;;;;;5006778;28;20113;-60
2023/06/17 05:24:44;;;;;;;3.45;2.50;;;25.50;39.00;;;;;;5004266;28;20060;-59
2023/06/17 05:27:11;;;;;;;3.83;3.05;;;25.50;39.20;;;;;;5006025;28;20120;-61
2023/06/17 05:29:37;;;;;;;3.65;2.30;;;25.50;39.30;;;;;;5007025;28;20175;-59
2023/06/17 05:32:03;;;;;;;3.25;2.28;;;25.50;39.40;;;;;;5006623;28;20107;-60
2023/06/17 05:34:30;;;;;;;3.50;2.40;;;25.60;39.60;;;;;;5006899;28;20030;-58
2023/06/17 05:36:56;;;;;;;3.60;2.80;;;25.60;39.70;;;;;;5007287;28;20496;-62
2023/06/17 05:39:22;;;;;;;3.15;2.38;;;25.60;39.80;;;;;;5003303;28;20402;-60
2023/06/17 05:41:48;;;;;;;2.55;2.15;;;25.60;40.00;;;;;;5005963;28;20078;-62
2023/06/17 05:44:17;;;;;;;2.95;2.22;;;25.50;40.00;;;;;;5004588;28;20125;-60
2023/06/17 05:46:45;;;;;;;3.20;2.33;;;25.50;40.10;;;;;;5001736;28;20259;-59
2023/06/17 05:49:14;;;;;;;2.60;2.20;;;25.50;40.20;;;;;;5007646;28;20037;-60
2023/06/17 05:51:42;;;;;;;3.17;2.17;;;25.50;40.20;;;;;;4998623;28;20507;-60
2023/06/17 05:54:08;;;;;;;3.22;2.20;;;25.60;40.30;;;;;;4999472;28;20141;-60
2023/06/17 05:56:34;;;;;;;3.00;1.98;;;25.60;40.40;;;;;;5002887;28;20212;-60
2023/06/17 05:59:00;;;;;;;2.65;2.03;;;25.50;40.30;;;;;;5001191;28;20117;-62
2023/06/17 06:01:32;;;;;;;3.13;2.10;;;25.60;40.40;;;;;;5000275;28;20053;-59
2023/06/17 06:03:58;;;;;;;2.28;1.92;;;25.60;40.50;;;;;;5000680;28;20025;-58
2023/06/17 06:06:23;;;;;;;3.00;1.95;;;25.50;40.50;;;;;;5020013;28;20468;-61
2023/06/17 06:08:50;;;;;;;2.53;1.98;;;25.60;40.60;;;;;;4997704;28;20372;-61
2023/06/17 06:11:16;;;;;;;2.95;2.35;;;25.60;40.60;;;;;;5001094;28;20026;-61
2023/06/17 06:13:42;;;;;;;7.85;2.45;;;25.60;40.70;;;;;;4994342;28;20412;-59
2023/06/17 06:16:08;;;;;;;7.18;2.63;;;25.60;40.80;;;;;;4993793;28;20043;-61
2023/06/17 06:18:34;;;;;;;5.45;2.92;;;25.60;40.80;;;;;;5000288;28;20095;-61
2023/06/17 06:21:00;;;;;;;5.20;2.92;;;25.60;40.80;;;;;;4998055;28;20117;-60
2023/06/17 06:23:26;;;;;;;3.92;2.53;;;25.60;40.80;;;;;;4996476;28;20037;-61
2023/06/17 06:25:52;;;;;;;5.68;2.97;;;25.60;40.80;;;;;;4997271;28;20140;-62
2023/06/17 06:28:18;;;;;;;8.15;2.97;;;25.60;40.80;;;;;;5000543;28;20252;-61
2023/06/17 06:30:44;;;;;;;4.28;2.50;;;25.60;40.80;;;;;;4996277;28;20121;-59
2023/06/17 06:33:10;;;;;;;7.03;2.80;;;25.60;40.80;;;;;;4997948;28;20037;-61
2023/06/17 06:35:36;;;;;;;5.93;2.72;;;25.60;40.80;;;;;;4997921;28;20366;-61
2023/06/17 06:38:03;;;;;;;6.85;2.65;;;25.60;40.70;;;;;;4996903;28;20129;-63
2023/06/17 06:40:29;;;;;;;4.22;2.50;;;25.60;40.60;;;;;;4996960;28;20093;-62
2023/06/17 06:42:55;;;;;;;4.28;2.67;;;25.60;40.50;;;;;;5008105;28;20049;-60
2023/06/17 06:45:25;;;;;;;4.93;2.78;;;25.60;40.40;;;;;;5020734;28;20028;-60
2023/06/17 06:47:51;;;;;;;4.10;2.47;;;25.60;40.20;;;;;;5025050;28;20080;-60
2023/06/17 06:50:17;;;;;;;5.15;2.47;;;25.60;40.10;;;;;;5022758;28;20096;-63
2023/06/17 06:52:47;;;;;;;3.60;2.25;;;25.60;40.00;;;;;;5017741;28;20092;-60
2023/06/17 06:55:13;;;;;;;5.25;2.53;;;25.60;39.80;;;;;;5018443;28;20037;-60
2023/06/17 06:57:39;;;;;;;4.00;2.28;;;25.60;39.50;;;;;;5026913;28;20325;-59
2023/06/17 07:00:08;;;;;;;4.35;2.38;;;25.60;39.20;;;;;;5022599;28;20021;-60
2023/06/17 07:02:35;;;;;;;2.65;2.03;;;25.70;38.80;;;;;;5022513;28;20399;-59
2023/06/17 07:05:03;;;;;;;3.28;2.45;;;25.70;38.40;;;;;;5021512;28;20446;-60
2023/06/17 07:07:34;;;;;;;3.35;2.53;;;25.70;38.30;;;;;;5019260;28;20109;-60
2023/06/17 07:10:00;;;;;;;4.70;2.72;;;25.80;38.30;;;;;;5038180;28;20033;-60
2023/06/17 07:12:27;;;;;;;4.47;2.70;;;25.80;38.10;;;;;;5023306;28;20384;-61
2023/06/17 07:14:53;;;;;;;3.65;2.60;;;25.80;38.10;;;;;;5017351;28;20143;-58
2023/06/17 07:17:19;;;;;;;4.90;2.72;;;25.80;37.90;;;;;;5021887;28;20029;-61
2023/06/17 07:19:45;;;;;;;3.55;2.63;;;25.80;37.90;;;;;;5020900;28;20088;-61
2023/06/17 07:22:13;;;;;;;4.53;2.50;;;25.80;37.70;;;;;;5019189;28;20025;-61
2023/06/17 07:24:38;;;;;;;2.45;2.00;;;25.80;37.30;;;;;;5045778;28;20290;-59
2023/06/17 07:27:05;;;;;;;2.40;2.10;;;25.80;37.00;;;;;;5022938;28;20026;-61
2023/06/17 07:29:31;;;;;;;4.32;2.30;;;25.90;36.80;;;;;;5024177;28;20025;-63
2023/06/17 07:31:57;;;;;;;3.45;2.40;;;25.90;36.70;;;;;;5037407;28;20041;-58
2023/06/17 07:34:23;;;;;;;2.72;2.28;;;25.90;36.70;;;;;;5027321;28;20025;-59
2023/06/17 07:36:52;;;;;;;2.05;1.77;;;25.90;36.70;;;;;;5025486;28;20055;-60
2023/06/17 07:39:20;;;;;;;2.20;1.67;;;25.90;36.40;;;;;;5041562;28;20132;-62
2023/06/17 07:41:46;;;;;;;3.58;1.77;;;25.90;36.30;;;;;;5040331;28;20025;-62
2023/06/17 07:44:11;;;;;;;2.85;1.50;;;25.90;36.20;;;;;;5042615;28;20171;-63
2023/06/17 07:46:37;;;;;;;2.78;2.00;;;25.90;36.10;;;;;;5021275;28;20439;-61
2023/06/17 07:49:03;;;;;;;3.42;1.85;;;25.90;36.10;;;;;;5023026;28;20283;-61
2023/06/17 07:51:29;;;;;;;2.40;1.77;;;25.90;36.00;;;;;;5041622;28;20080;-62
2023/06/17 07:53:55;;;;;;;2.10;1.90;;;25.90;35.90;;;;;;5044124;28;20068;-61
2023/06/17 07:56:21;;;;;;;2.85;2.10;;;26.00;35.90;;;;;;5027009;28;20322;-61
2023/06/17 07:58:48;;;;;;;2.40;2.10;;;26.00;35.80;;;;;;5034514;28;20025;-62
2023/06/17 08:01:13;;;;;;;2.47;2.00;;;26.00;35.70;;;;;;5040108;28;20033;-62
2023/06/17 08:03:39;;;;;;;2.63;2.00;;;26.00;35.60;;;;;;5043011;28;20123;-63
2023/06/17 08:06:05;;;;;;;2.67;2.30;;;26.00;35.50;;;;;;5038959;28;20032;-62
2023/06/17 08:08:31;;;;;;;3.72;2.30;;;25.90;35.30;;;;;;5035516;28;20074;-59
2023/06/17 08:10:57;;;;;;;2.80;2.33;;;25.90;35.30;;;;;;5042090;28;20026;-62
2023/06/17 08:13:23;;;;;;;2.70;2.25;;;25.90;35.20;;;;;;5045665;28;20033;-60
2023/06/17 08:15:51;;;;;;;3.67;2.15;;;25.90;35.20;;;;;;5032304;28;20444;-62
2023/06/17 08:18:17;;;;;;;3.05;2.38;;;25.90;35.00;;;;;;5041501;28;20041;-62
2023/06/17 08:20:43;;;;;;;3.05;2.35;;;25.90;34.90;;;;;;5043558;28;20032;-60
2023/06/17 08:23:09;;;;;;;5.05;2.20;;;25.90;34.90;;;;;;5040648;28;20033;-64
2023/06/17 08:25:36;;;;;;;3.85;2.15;;;25.90;34.90;;;;;;5047464;28;20025;-63
2023/06/17 08:28:02;;;;;;;2.72;2.25;;;25.90;34.90;;;;;;5037974;28;20172;-64
2023/06/17 08:30:28;;;;;;;3.50;2.10;;;25.90;34.90;;;;;;5046696;28;20029;-63
2023/06/17 08:32:55;;;;;;;2.72;2.13;;;26.00;34.90;;;;;;5043422;28;20037;-62
2023/06/17 08:35:20;;;;;;;4.03;2.40;;;26.00;34.80;;;;;;5041248;28;20045;-63
2023/06/17 08:37:47;;;;;;;2.70;1.88;;;26.10;34.70;;;;;;5044679;28;20179;-64
2023/06/17 08:40:14;;;;;;;2.40;2.20;;;26.20;34.60;;;;;;5043117;28;20096;-64
2023/06/17 08:42:41;;;;;;;2.40;2.20;;;26.20;34.50;;;;;;5043521;28;20044;-62
2023/06/17 08:45:08;;;;;;;2.70;2.05;;;26.30;34.40;;;;;;5044016;28;20045;-61
2023/06/17 08:47:35;;;;;;;1.83;1.70;;;26.40;34.30;;;;;;5045278;28;20118;-62
2023/06/17 08:50:02;;;;;;;1.98;1.70;;;26.50;34.20;;;;;;5043219;28;20036;-61
2023/06/17 08:52:33;;;;;;;3.65;2.47;;;26.60;34.10;;;;;;5027405;28;20044;-61
2023/06/17 08:54:59;;;;;;;3.15;2.15;;;26.60;34.00;;;;;;5046473;28;20131;-61
2023/06/17 08:57:27;;;;;;;2.90;2.17;;;26.60;33.90;;;;;;5022773;28;20025;-60
2023/06/17 08:59:53;;;;;;;2.22;1.85;;;26.70;33.80;;;;;;5041767;28;20025;-61
2023/06/17 09:02:21;;;;;;;3.33;2.35;;;26.70;33.70;;;;;;5041068;28;20108;-62
2023/06/17 09:04:46;;;;;;;4.10;1.98;;;26.70;33.70;;;;;;5045539;28;20040;-62
2023/06/17 09:07:13;;;;;;;2.17;1.95;;;26.70;33.60;;;;;;5021306;28;20104;-62
2023/06/17 09:09:39;;;;;;;2.00;1.75;;;26.70;33.50;;;;;;5021791;28;20055;-62
2023/06/17 09:12:06;;;;;;;2.60;1.90;;;26.80;33.40;;;;;;5044557;28;20065;-62
2023/06/17 09:14:33;;;;;;;2.03;1.85;;;26.80;33.40;;;;;;5011684;28;20128;-60
2023/06/17 09:17:00;;;;;;;2.00;1.80;;;26.70;33.20;;;;;;5043627;28;20024;-65
2023/06/17 09:19:30;;;;;;;2.58;1.88;;;26.70;33.10;;;;;;5040735;28;20037;-63
2023/06/17 09:21:56;;;;;;;3.20;1.95;;;26.70;33.10;;;;;;5046110;28;20032;-61
2023/06/17 09:24:29;;;;;;;2.92;1.83;;;26.70;33.10;;;;;;5046354;28;20278;-61
2023/06/17 09:26:55;;;;;;;2.83;2.05;;;26.70;33.30;;;;;;5027005;28;20124;-61
2023/06/17 09:29:21;;;;;;;2.00;1.80;;;26.70;33.30;;;;;;5024326;28;20036;-61
2023/06/17 09:31:55;;;;;;;2.53;1.98;;;26.70;33.30;;;;;;5042114;28;20119;-60
2023/06/17 09:34:21;;;;;;;2.22;1.90;;;26.70;33.70;;;;;;5042246;28;20029;-60
2023/06/17 09:37:00;;;;;;;2.30;1.63;;;26.70;33.00;;;;;;5044046;28;20032;-64
2023/06/17 09:39:31;;;;;;;2.63;2.05;;;26.70;33.10;;;;;;5026449;28;20084;-62
2023/06/17 09:42:05;;;;;;;2.00;1.75;;;26.70;33.20;;;;;;5038516;28;20045;-61
2023/06/17 09:44:31;;;;;;;2.78;2.00;;;26.70;33.30;;;;;;5040356;28;20117;-63
2023/06/17 09:47:06;;;;;;;2.17;1.95;;;26.70;33.40;;;;;;5040779;28;20345;-61
2023/06/17 09:49:34;;;;;;;2.15;1.95;;;26.70;33.40;;;;;;5023909;28;20040;-62
2023/06/17 09:52:02;;;;;;;2.38;1.98;;;26.70;33.40;;;;;;5020586;28;20108;-62
2023/06/17 09:54:29;;;;;;;2.00;1.80;;;26.70;33.50;;;;;;5034778;28;20029;-61
2023/06/17 09:56:58;;;;;;;2.53;1.98;;;26.70;33.50;;;;;;5038184;28;20025;-62
2023/06/17 09:59:31;;;;;;;2.33;1.63;;;26.70;33.40;;;;;;5024858;28;20025;-64
2023/06/17 10:01:57;;;;;;;2.05;1.85;;;26.70;33.40;;;;;;5037773;28;20044;-63
2023/06/17 10:04:23;;;;;;;1.98;1.77;;;26.70;33.40;;;;;;5039997;28;20021;-62
2023/06/17 10:06:52;;;;;;;2.45;2.13;;;26.70;33.40;;;;;;5023863;28;20420;-62
2023/06/17 10:09:19;;;;;;;2.78;2.25;;;26.70;33.30;;;;;;5039982;28;20180;-62
2023/06/17 10:11:48;;;;;;;3.42;1.95;;;26.70;33.30;;;;;;5021849;28;20353;-61
2023/06/17 10:14:23;;;;;;;4.25;2.60;;;26.70;33.30;;;;;;5038483;28;20038;-61
2023/06/17 10:16:50;;;;;;;3.05;2.35;;;26.70;33.10;;;;;;5041406;28;20102;-62
2023/06/17 10:19:22;;;;;;;3.55;2.60;;;26.70;33.00;;;;;;5020197;28;21491;-62
2023/06/17 10:21:52;;;;;;;2.70;2.20;;;26.70;32.90;;;;;;5042521;28;20417;-64
2023/06/17 10:24:18;;;;;;;3.25;2.28;;;26.70;32.60;;;;;;5023840;28;20030;-61
2023/06/17 10:26:44;;;;;;;2.67;1.95;;;26.70;32.40;;;;;;5033817;28;20123;-63
2023/06/17 10:29:11;;;;;;;2.40;1.98;;;26.70;32.20;;;;;;5038921;28;20044;-62
2023/06/17 10:31:42;;;;;;;2.00;1.80;;;26.80;32.10;;;;;;5038365;28;20034;-64
2023/06/17 10:34:16;;;;;;;1.90;1.60;;;26.80;31.90;;;;;;5036308;28;20048;-62
2023/06/17 10:36:47;;;;;;;;;;;26.80;31.70;;;;;;5043436;28;20314;-61
2023/06/17 10:39:13;;;;;;;1.85;1.65;;;26.80;31.70;;;;;;5036919;28;19909;-63
2023/06/17 10:41:41;;;;;;;2.63;1.95;;;26.80;31.70;;;;;;5039546;28;20022;-61
2023/06/17 10:44:26;;;;;;;2.15;1.95;;;26.80;31.50;;;;;;5021969;28;20056;-60
2023/06/17 10:46:53;;;;;;;1.80;1.48;;;26.80;31.40;;;;;;5037251;28;20037;-61
2023/06/17 10:49:20;;;;;;;2.55;2.10;;;26.90;31.40;;;;;;5036499;28;20138;-62
2023/06/17 10:51:50;;;;;;;1.73;1.60;;;26.90;31.60;;;;;;5048213;28;20175;-61
2023/06/17 10:54:27;;;;;;;3.65;2.13;;;26.90;32.00;;;;;;5031824;28;20025;-60
2023/06/17 10:56:53;;;;;;;2.13;1.92;;;26.90;32.30;;;;;;5031835;28;20068;-63
2023/06/17 10:59:29;;;;;;;2.20;2.00;;;26.90;32.50;;;;;;5052908;28;20379;-64
2023/06/17 11:02:03;;;;;;;2.88;2.20;;;26.90;32.60;;;;;;5053360;28;20102;-62
2023/06/17 11:04:32;;;;;;;;;;;26.90;32.60;;;;;;5054457;28;20452;-63
2023/06/17 11:07:02;;;;;;;2.10;1.70;;;26.90;32.60;;;;;;5053016;28;19962;-63
2023/06/17 11:09:30;;;;;;;2.10;1.65;;;26.90;32.60;;;;;;5035826;28;20416;-62
2023/06/17 11:11:57;;;;;;;3.85;2.10;;;26.90;32.50;;;;;;5035404;28;20321;-62
2023/06/17 11:14:27;;;;;;;1.83;1.58;;;26.90;32.50;;;;;;5053078;28;20072;-62
2023/06/17 11:16:53;;;;;;;2.05;1.83;;;26.90;32.40;;;;;;5051961;28;20073;-62
2023/06/17 11:19:19;;;;;;;3.35;1.80;;;26.90;32.30;;;;;;5052048;28;20040;-61
2023/06/17 11:21:45;;;;;;;2.00;1.80;;;26.90;32.20;;;;;;5052467;28;20136;-61
2023/06/17 11:24:11;;;;;;;1.95;1.77;;;26.90;32.20;;;;;;5053339;28;20044;-61
2023/06/17 11:26:37;;;;;;;2.17;1.85;;;26.90;32.70;;;;;;5053066;28;20029;-62
2023/06/17 11:29:06;;;;;;;2.63;2.17;;;26.90;32.10;;;;;;5052907;28;20060;-61
2023/06/17 11:31:36;;;;;;;2.85;1.88;;;26.90;32.00;;;;;;5053142;28;20068;-62
2023/06/17 11:34:02;;;;;;;2.05;1.67;;;26.90;32.60;;;;;;5034775;28;20048;-63
2023/06/17 11:36:28;;;;;;;1.98;1.60;;;26.90;31.90;;;;;;5052052;28;20025;-61
2023/06/17 11:38:55;;;;;;;3.95;1.73;;;26.90;31.90;;;;;;5053127;28;20424;-62
2023/06/17 11:41:22;;;;;;;2.38;1.75;;;26.90;31.80;;;;;;5035058;28;20174;-63
2023/06/17 11:43:50;;;;;;;1.67;1.58;;;26.90;31.80;;;;;;5052545;28;20045;-62
2023/06/17 11:46:23;;;;;;;1.95;1.70;;;26.90;31.70;;;;;;5052764;28;20029;-61
2023/06/17 11:48:49;;;;;;;1.92;1.73;;;26.90;31.60;;;;;;5052713;28;20290;-64
2023/06/17 11:51:16;;;;;;;3.17;2.10;;;27.00;31.70;;;;;;5051345;28;20029;-61
2023/06/17 11:53:46;;;;;;;1.70;1.60;;;27.00;31.60;;;;;;5051367;28;20305;-62
2023/06/17 11:56:20;;;;;;;2.33;1.85;;;27.00;31.50;;;;;;5052766;28;20484;-61
2023/06/17 11:58:46;;;;;;;2.10;1.65;;;27.00;31.50;;;;;;5052374;28;20124;-65
2023/06/17 12:01:13;;;;;;;2.22;2.03;;;27.00;32.10;;;;;;5052405;28;20028;-64
2023/06/17 12:03:44;;;;;;;1.83;1.60;;;27.00;31.40;;;;;;5034205;28;20317;-60
2023/06/17 12:06:19;;;;;;;1.92;1.80;;;27.00;31.40;;;;;;5052496;28;20037;-62
2023/06/17 12:08:55;;;;;;;2.40;1.90;;;27.00;31.30;;;;;;5049784;28;20086;-62
2023/06/17 12:11:29;;;;;;;1.90;1.65;;;27.00;31.30;;;;;;5052035;28;20139;-61
2023/06/17 12:13:55;;;;;;;2.40;1.60;;;27.00;31.20;;;;;;5052252;28;20040;-62
2023/06/17 12:16:27;;;;;;;2.30;1.80;;;27.00;31.20;;;;;;5051862;28;20104;-63
2023/06/17 12:18:53;;;;;;;2.20;1.90;;;27.00;31.20;;;;;;5051953;28;20538;-63
2023/06/17 12:21:21;;;;;;;2.03;1.83;;;27.10;31.20;;;;;;5050707;28;20033;-61
2023/06/17 12:23:49;;;;;;;2.03;1.80;;;27.00;31.10;;;;;;5052223;28;20051;-63
2023/06/17 12:26:15;;;;;;;2.28;1.90;;;27.10;31.10;;;;;;5052047;28;20487;-63
2023/06/17 12:28:41;;;;;;;2.10;1.90;;;27.10;31.10;;;;;;5051574;28;20448;-62
2023/06/17 12:31:08;;;;;;;2.25;1.73;;;27.10;31.10;;;;;;5034337;28;20108;-61
2023/06/17 12:33:34;;;;;;;2.10;1.80;;;27.10;31.00;;;;;;5051811;28;20063;-63
2023/06/17 12:36:00;;;;;;;1.88;1.67;;;27.10;31.10;;;;;;5050291;28;20344;-63
2023/06/17 12:38:31;;;;;;;2.13;1.92;;;27.10;31.10;;;;;;5048775;28;20036;-62
2023/06/17 12:40:59;;;;;;;2.03;1.63;;;27.10;31.00;;;;;;5033696;28;20326;-62
2023/06/17 12:43:29;;;;;;;2.05;1.50;;;27.10;31.00;;;;;;5051487;28;20430;-63
2023/06/17 12:45:59;;;;;;;2.38;1.95;;;27.10;31.00;;;;;;5051666;28;20413;-61
2023/06/17 12:48:26;;;;;;;2.72;1.98;;;27.10;31.10;;;;;;5052021;28;20033;-62
2023/06/17 12:50:53;;;;;;;2.35;1.70;;;27.10;31.10;;;;;;5033813;28;20029;-61